createdAt,value
2023-12-09T00:00:44.352Z,90634.53
2023-12-09T00:03:29.390Z,90651.59
2023-12-09T00:06:14.732Z,90647.91
2023-12-09T00:08:59.947Z,90646.91
2023-12-09T00:11:45.176Z,90650.41
2023-12-09T00:14:30.267Z,90656.38
2023-12-09T00:17:14.936Z,90654.13
2023-12-09T00:19:59.773Z,90662.66
2023-12-09T00:22:44.641Z,90662.19
2023-12-09T00:25:29.549Z,90663.97
2023-12-09T00:28:14.133Z,90672.84
2023-12-09T00:30:59.134Z,90674.34
2023-12-09T00:33:44.120Z,90686.44
2023-12-09T00:36:29.176Z,90687.44
2023-12-09T00:39:14.397Z,90690.16
2023-12-09T00:41:59.594Z,90681.00
2023-12-09T00:44:44.631Z,90686.69
2023-12-09T00:47:29.485Z,90683.97
2023-12-09T00:50:14.335Z,90678.53
2023-12-09T00:52:59.382Z,90671.38
2023-12-09T00:55:44.587Z,90674.59
2023-12-09T00:58:30.053Z,90679.53
2023-12-09T01:01:15.382Z,90675.59
2023-12-09T01:04:00.989Z,90675.81
2023-12-09T01:06:46.125Z,90674.84
2023-12-09T01:09:31.242Z,90670.44
2023-12-09T01:12:16.358Z,90673.63
2023-12-09T01:15:01.029Z,90682.53
2023-12-09T01:17:46.504Z,90684.78
2023-12-09T01:20:31.368Z,90679.78
2023-12-09T01:23:16.161Z,90693.88
2023-12-09T01:26:00.881Z,90689.25
2023-12-09T01:28:46.036Z,90705.41
2023-12-09T01:31:30.756Z,90696.44
2023-12-09T01:34:15.992Z,90696.06
2023-12-09T01:37:01.183Z,90702.53
2023-12-09T01:39:45.910Z,90708.22
2023-12-09T01:42:31.257Z,90725.53
2023-12-09T01:45:16.243Z,90745.78
2023-12-09T01:48:01.084Z,90742.31
2023-12-09T01:50:46.155Z,90746.25
2023-12-09T01:53:31.430Z,90740.63
2023-12-09T01:56:16.206Z,90748.84
2023-12-09T01:59:01.070Z,90753.03
2023-12-09T02:01:46.092Z,90750.59
2023-12-09T02:04:31.073Z,90752.31
2023-12-09T02:07:15.867Z,90743.41
2023-12-09T02:10:00.652Z,90742.25
2023-12-09T02:12:45.680Z,90727.47
2023-12-09T02:15:30.795Z,90721.94
2023-12-09T02:18:20.181Z,90707.13
2023-12-09T02:21:05.361Z,90704.16
2023-12-09T02:23:50.522Z,90703.41
2023-12-09T02:26:41.137Z,90712.09
2023-12-09T02:29:27.511Z,90698.47
2023-12-09T02:32:12.885Z,90700.75
2023-12-09T02:34:58.259Z,90698.53
2023-12-09T02:37:43.359Z,90695.38
2023-12-09T02:40:28.470Z,90693.50
2023-12-09T02:43:17.372Z,90685.38
2023-12-09T02:46:02.378Z,90677.69
2023-12-09T02:48:47.634Z,90681.91
2023-12-09T02:51:32.806Z,90667.56
2023-12-09T02:54:17.993Z,90670.75
2023-12-09T02:57:03.275Z,90671.66
2023-12-09T02:59:48.524Z,90676.75
2023-12-09T03:02:33.751Z,90662.97
2023-12-09T03:05:18.646Z,90656.03
2023-12-09T03:08:03.238Z,90658.44
2023-12-09T03:10:48.576Z,90650.91
2023-12-09T03:13:33.201Z,90645.09
2023-12-09T03:16:18.191Z,90646.00
2023-12-09T03:19:03.040Z,90641.81
2023-12-09T03:21:48.168Z,90634.47
2023-12-09T03:24:33.305Z,90631.06
2023-12-09T03:27:18.398Z,90629.34
2023-12-09T03:30:03.473Z,90628.88
2023-12-09T03:32:48.370Z,90622.03
2023-12-09T03:35:33.147Z,90624.25
2023-12-09T03:38:18.125Z,90622.28
2023-12-09T03:41:03.116Z,90618.59
2023-12-09T03:43:47.960Z,90616.91
2023-12-09T03:46:33.077Z,90629.19
2023-12-09T03:49:18.069Z,90629.75
2023-12-09T03:52:03.200Z,90625.72
2023-12-09T03:54:47.951Z,90637.31
2023-12-09T03:57:32.840Z,90637.06
2023-12-09T04:00:18.061Z,90631.91
2023-12-09T04:03:02.942Z,90632.66
2023-12-09T04:05:48.191Z,90635.75
2023-12-09T04:08:33.368Z,90635.34
2023-12-09T04:11:18.380Z,90631.88
2023-12-09T04:14:03.238Z,90635.06
2023-12-09T04:16:47.949Z,90634.88
2023-12-09T04:19:33.368Z,90636.28
2023-12-09T04:22:18.513Z,90638.22
2023-12-09T04:25:03.668Z,90645.94
2023-12-09T04:27:48.752Z,90637.06
2023-12-09T04:30:33.481Z,90620.78
2023-12-09T04:33:18.463Z,90621.31
2023-12-09T04:36:03.477Z,90619.63
2023-12-09T04:38:48.485Z,90627.78
2023-12-09T04:41:33.493Z,90640.28
2023-12-09T04:44:18.417Z,90636.56
2023-12-09T04:47:06.180Z,90641.28
2023-12-09T04:49:52.011Z,90645.94
2023-12-09T04:52:36.927Z,90662.50
2023-12-09T04:55:21.936Z,90656.03
2023-12-09T04:58:06.747Z,90666.63
2023-12-09T05:00:51.507Z,90665.09
2023-12-09T05:03:36.289Z,90678.72
2023-12-09T05:06:21.143Z,90673.09
2023-12-09T05:09:06.047Z,90678.25
2023-12-09T05:11:50.811Z,90677.03
2023-12-09T05:14:35.450Z,90677.97
2023-12-09T05:17:20.287Z,90681.72
2023-12-09T05:20:04.936Z,90668.09
2023-12-09T05:22:49.643Z,90664.88
2023-12-09T05:25:34.638Z,90661.47
2023-12-09T05:28:21.393Z,90673.63
2023-12-09T05:31:06.462Z,90664.22
2023-12-09T05:33:51.324Z,90657.53
2023-12-09T05:36:36.332Z,90671.38
2023-12-09T05:39:21.638Z,90667.47
2023-12-09T05:42:06.913Z,90661.38
2023-12-09T05:44:52.114Z,90660.41
2023-12-09T05:47:37.229Z,90669.59
2023-12-09T05:50:21.977Z,90664.69
2023-12-09T05:53:06.709Z,90667.13
2023-12-09T05:55:51.518Z,90656.22
2023-12-09T05:58:36.193Z,90649.34
2023-12-09T06:01:21.337Z,90649.06
2023-12-09T06:04:06.301Z,90647.84
2023-12-09T06:06:51.294Z,90662.72
2023-12-09T06:09:36.224Z,90649.88
2023-12-09T06:12:21.564Z,90652.31
2023-12-09T06:15:06.687Z,90662.25
2023-12-09T06:17:51.797Z,90660.75
2023-12-09T06:20:36.977Z,90657.00
2023-12-09T06:23:21.949Z,90655.53
2023-12-09T06:26:06.683Z,90662.91
2023-12-09T06:28:51.405Z,90663.13
2023-12-09T06:31:36.481Z,90654.97
2023-12-09T06:34:21.512Z,90649.53
2023-12-09T06:37:06.364Z,90642.38
2023-12-09T06:39:51.431Z,90638.91
2023-12-09T06:42:36.092Z,90625.06
2023-12-09T06:45:21.306Z,90633.13
2023-12-09T06:48:06.087Z,90628.91
2023-12-09T06:50:50.870Z,90637.41
2023-12-09T06:53:35.623Z,90640.06
2023-12-09T06:56:20.672Z,90648.22
2023-12-09T06:59:05.700Z,90650.06
2023-12-09T07:01:50.745Z,90659.03
2023-12-09T07:04:35.845Z,90652.56
2023-12-09T07:07:22.446Z,90654.56
2023-12-09T07:10:07.873Z,90656.50
2023-12-09T07:12:52.656Z,90664.94
2023-12-09T07:15:37.633Z,90668.25
2023-12-09T07:18:22.355Z,90672.94
2023-12-09T07:21:07.169Z,90667.19
2023-12-09T07:23:52.301Z,90645.09
2023-12-09T07:26:37.082Z,90639.28
2023-12-09T07:29:22.145Z,90640.53
2023-12-09T07:32:07.108Z,90647.22
2023-12-09T07:34:53.722Z,90654.63
2023-12-09T07:37:42.101Z,90666.44
2023-12-09T07:40:27.639Z,90666.16
2023-12-09T07:43:12.602Z,90654.56
2023-12-09T07:45:57.491Z,90645.72
2023-12-09T07:48:42.646Z,90631.59
2023-12-09T07:51:27.590Z,90638.06
2023-12-09T07:54:12.419Z,90640.81
2023-12-09T07:56:57.487Z,90653.16
2023-12-09T07:59:42.459Z,90653.38
2023-12-09T08:02:27.807Z,90658.22
2023-12-09T08:05:12.888Z,90662.22
2023-12-09T08:07:57.701Z,90667.25
2023-12-09T08:10:42.447Z,90663.88
2023-12-09T08:13:27.149Z,90655.63
2023-12-09T08:16:12.142Z,90648.47
2023-12-09T08:18:57.094Z,90651.00
2023-12-09T08:21:42.122Z,90651.78
2023-12-09T08:24:28.233Z,90643.44
2023-12-09T08:27:13.453Z,90643.06
2023-12-09T08:29:58.184Z,90636.50
2023-12-09T08:32:43.027Z,90640.97
2023-12-09T08:35:28.367Z,90650.38
2023-12-09T08:38:13.255Z,90647.00
2023-12-09T08:40:58.432Z,90638.94
2023-12-09T08:43:43.583Z,90648.81
2023-12-09T08:46:28.336Z,90659.44
2023-12-09T08:49:13.426Z,90657.47
2023-12-09T08:51:58.603Z,90659.19
2023-12-09T08:54:43.464Z,90653.34
2023-12-09T08:57:28.289Z,90652.97
2023-12-09T09:00:13.440Z,90649.78
2023-12-09T09:02:58.512Z,90643.91
2023-12-09T09:05:43.301Z,90646.38
2023-12-09T09:08:27.931Z,90645.88
2023-12-09T09:11:12.976Z,90643.16
2023-12-09T09:13:57.635Z,90653.78
2023-12-09T09:16:42.515Z,90660.69
2023-12-09T09:19:27.693Z,90657.47
2023-12-09T09:22:12.602Z,90662.38
2023-12-09T09:24:57.586Z,90666.13
2023-12-09T09:27:42.658Z,90664.66
2023-12-09T09:30:28.026Z,90664.41
2023-12-09T09:33:13.120Z,90660.94
2023-12-09T09:35:58.019Z,90666.38
2023-12-09T09:38:42.941Z,90663.66
2023-12-09T09:41:28.118Z,90666.88
2023-12-09T09:44:13.002Z,90667.13
2023-12-09T09:46:57.558Z,90676.78
2023-12-09T09:49:42.448Z,90664.41
2023-12-09T09:52:27.525Z,90667.88
2023-12-09T09:55:12.981Z,90650.06
2023-12-09T09:57:57.875Z,90640.66
2023-12-09T10:00:43.157Z,90638.16
2023-12-09T10:03:28.182Z,90629.25
2023-12-09T10:06:13.344Z,90627.34
2023-12-09T10:08:58.293Z,90620.16
2023-12-09T10:11:43.325Z,90636.25
2023-12-09T10:14:28.159Z,90626.13
2023-12-09T10:17:12.926Z,90619.94
2023-12-09T10:19:57.921Z,90604.41
2023-12-09T10:22:42.745Z,90609.72
2023-12-09T10:25:27.645Z,90611.72
2023-12-09T10:28:12.422Z,90602.06
2023-12-09T10:30:57.307Z,90607.97
2023-12-09T10:33:42.365Z,90610.94
2023-12-09T10:36:27.097Z,90614.56
2023-12-09T10:39:12.068Z,90605.22
2023-12-09T10:41:56.855Z,90589.13
2023-12-09T10:44:41.866Z,90591.38
2023-12-09T10:47:26.613Z,90599.03
2023-12-09T10:50:11.596Z,90593.59
2023-12-09T10:52:56.322Z,90589.91
2023-12-09T10:55:41.313Z,90597.06
2023-12-09T10:58:26.465Z,90589.19
2023-12-09T11:01:11.477Z,90568.72
2023-12-09T11:03:56.546Z,90573.69
2023-12-09T11:06:41.269Z,90565.03
2023-12-09T11:09:26.292Z,90565.22
2023-12-09T11:12:11.286Z,90558.31
2023-12-09T11:14:56.334Z,90559.31
2023-12-09T11:17:41.491Z,90563.25
2023-12-09T11:20:26.671Z,90562.03
2023-12-09T11:23:11.951Z,90549.94
2023-12-09T11:25:56.688Z,90547.97
2023-12-09T11:28:41.552Z,90544.75
2023-12-09T11:31:26.424Z,90541.03
2023-12-09T11:34:11.219Z,90530.41
2023-12-09T11:36:56.177Z,90526.94
2023-12-09T11:39:42.503Z,90515.56
2023-12-09T11:42:27.481Z,90516.06
2023-12-09T11:45:12.403Z,90513.59
2023-12-09T11:47:58.311Z,90501.75
2023-12-09T11:50:43.488Z,90492.81
2023-12-09T11:53:29.913Z,90481.69
2023-12-09T11:56:16.171Z,90484.16
2023-12-09T11:59:00.917Z,90481.69
2023-12-09T12:01:45.872Z,90476.25
2023-12-09T12:04:30.957Z,90467.34
2023-12-09T12:07:15.939Z,90468.81
2023-12-09T12:10:01.086Z,90459.44
2023-12-09T12:12:46.292Z,90465.13
2023-12-09T12:15:31.543Z,90464.16
2023-12-09T12:18:16.488Z,90475.03
2023-12-09T12:21:01.600Z,90476.03
2023-12-09T12:23:46.261Z,90478.72
2023-12-09T12:26:32.568Z,90477.88
2023-12-09T12:29:17.514Z,90490.81
2023-12-09T12:32:02.246Z,90490.81
2023-12-09T12:34:47.382Z,90501.47
2023-12-09T12:37:32.208Z,90498.75
2023-12-09T12:40:16.975Z,90515.09
2023-12-09T12:43:01.720Z,90519.53
2023-12-09T12:45:46.478Z,90532.59
2023-12-09T12:48:31.401Z,90528.84
2023-12-09T12:51:16.349Z,90532.06
2023-12-09T12:54:01.058Z,90529.63
2023-12-09T12:56:46.011Z,90522.72
2023-12-09T12:59:30.820Z,90515.22
2023-12-09T13:02:16.126Z,90509.78
2023-12-09T13:05:00.878Z,90505.03
2023-12-09T13:07:45.962Z,90505.81
2023-12-09T13:10:30.726Z,90508.00
2023-12-09T13:13:15.662Z,90488.94
2023-12-09T13:16:00.640Z,90490.88
2023-12-09T13:18:45.741Z,90478.50
2023-12-09T13:21:30.891Z,90479.66
2023-12-09T13:24:15.782Z,90460.41
2023-12-09T13:27:00.385Z,90455.72
2023-12-09T13:29:45.863Z,90454.72
2023-12-09T13:32:30.857Z,90447.84
2023-12-09T13:35:16.341Z,90442.81
2023-12-09T13:38:03.504Z,90430.00
2023-12-09T13:40:48.790Z,90421.59
2023-12-09T13:43:33.943Z,90425.06
2023-12-09T13:46:18.702Z,90419.13
2023-12-09T13:49:03.954Z,90409.25
2023-12-09T13:51:49.077Z,90406.75
2023-12-09T13:54:33.809Z,90396.63
2023-12-09T13:57:18.789Z,90397.84
2023-12-09T14:00:03.673Z,90403.28
2023-12-09T14:02:48.561Z,90411.91
2023-12-09T14:05:33.493Z,90388.47
2023-12-09T14:08:18.543Z,90386.69
2023-12-09T14:11:03.555Z,90388.44
2023-12-09T14:13:48.645Z,90390.69
2023-12-09T14:16:33.474Z,90383.13
2023-12-09T14:19:18.370Z,90383.16
2023-12-09T14:22:03.395Z,90377.06
2023-12-09T14:24:48.265Z,90372.25
2023-12-09T14:27:33.163Z,90383.22
2023-12-09T14:30:18.384Z,90373.25
2023-12-09T14:33:03.819Z,90372.25
2023-12-09T14:35:58.009Z,90373.66
2023-12-09T14:38:43.065Z,90363.06
2023-12-09T14:41:28.188Z,90355.97
2023-12-09T14:44:13.674Z,90356.84
2023-12-09T14:46:58.294Z,90364.75
2023-12-09T14:49:43.348Z,90371.06
2023-12-09T14:52:28.721Z,90361.50
2023-12-09T14:55:13.483Z,90360.50
2023-12-09T14:57:58.477Z,90354.81
2023-12-09T15:00:43.234Z,90359.78
2023-12-09T15:03:28.684Z,90358.28
2023-12-09T15:06:13.433Z,90353.09
2023-12-09T15:08:58.970Z,90347.66
2023-12-09T15:11:43.607Z,90335.81
2023-12-09T15:14:28.690Z,90339.75
2023-12-09T15:17:13.436Z,90347.41
2023-12-09T15:19:58.125Z,90330.59
2023-12-09T15:22:42.942Z,90323.94
2023-12-09T15:25:27.894Z,90310.34
2023-12-09T15:28:13.040Z,90312.28
2023-12-09T15:31:04.125Z,90316.47
2023-12-09T15:33:49.388Z,90310.78
2023-12-09T15:36:34.549Z,90305.84
2023-12-09T15:39:19.237Z,90311.75
2023-12-09T15:42:04.341Z,90297.16
2023-12-09T15:44:49.131Z,90299.41
2023-12-09T15:47:34.055Z,90299.09
2023-12-09T15:50:18.977Z,90292.69
2023-12-09T15:53:03.696Z,90289.00
2023-12-09T15:55:48.887Z,90278.38
2023-12-09T15:58:33.808Z,90280.34
2023-12-09T16:01:18.852Z,90272.91
2023-12-09T16:04:04.007Z,90261.81
2023-12-09T16:06:48.727Z,90264.50
2023-12-09T16:09:36.330Z,90266.22
2023-12-09T16:12:23.491Z,90237.09
2023-12-09T16:15:08.601Z,90245.72
2023-12-09T16:17:53.732Z,90232.16
2023-12-09T16:20:38.629Z,90238.06
2023-12-09T16:23:23.573Z,90231.66
2023-12-09T16:26:08.951Z,90237.53
2023-12-09T16:28:53.611Z,90241.75
2023-12-09T16:31:38.501Z,90248.09
2023-12-09T16:34:23.287Z,90251.81
2023-12-09T16:37:08.935Z,90247.50
2023-12-09T16:39:53.926Z,90244.84
2023-12-09T16:42:38.940Z,90235.53
2023-12-09T16:45:23.739Z,90236.06
2023-12-09T16:48:08.951Z,90216.31
2023-12-09T16:50:54.072Z,90207.69
2023-12-09T16:53:39.184Z,90190.63
2023-12-09T16:56:23.818Z,90186.69
2023-12-09T16:59:10.822Z,90186.69
2023-12-09T17:01:55.752Z,90162.75
2023-12-09T17:04:40.813Z,90160.00
2023-12-09T17:07:25.978Z,90134.56
2023-12-09T17:10:11.845Z,90121.50
2023-12-09T17:12:56.929Z,90131.09
2023-12-09T17:15:41.634Z,90146.63
2023-12-09T17:18:26.971Z,90187.66
2023-12-09T17:21:12.031Z,90177.91
2023-12-09T17:23:56.927Z,90162.16
2023-12-09T17:26:42.113Z,90182.41
2023-12-09T17:29:26.778Z,90189.06
2023-12-09T17:32:11.524Z,90207.81
2023-12-09T17:34:56.149Z,90184.91
2023-12-09T17:37:41.317Z,90195.78
2023-12-09T17:40:26.295Z,90183.41
2023-12-09T17:43:11.368Z,90197.03
2023-12-09T17:45:56.596Z,90185.44
2023-12-09T17:48:41.827Z,90179.66
2023-12-09T17:51:27.184Z,90173.28
2023-12-09T17:54:12.143Z,90150.81
2023-12-09T17:56:57.104Z,90145.34
2023-12-09T17:59:42.040Z,90142.13
2023-12-09T18:02:27.386Z,90153.00
2023-12-09T18:05:12.653Z,90144.59
2023-12-09T18:07:57.554Z,90136.25
2023-12-09T18:10:42.445Z,90133.03
2023-12-09T18:13:27.086Z,90131.84
2023-12-09T18:16:12.088Z,90130.88
2023-12-09T18:18:57.255Z,90113.09
2023-12-09T18:21:42.096Z,90096.06
2023-12-09T18:24:26.942Z,90079.53
2023-12-09T18:27:12.158Z,90065.22
2023-12-09T18:29:57.036Z,90055.84
2023-12-09T18:32:42.149Z,90028.94
2023-12-09T18:35:27.171Z,89997.59
2023-12-09T18:38:12.102Z,89999.81
2023-12-09T18:40:57.095Z,90040.00
2023-12-09T18:43:41.770Z,90090.75
2023-12-09T18:46:26.725Z,90105.31
2023-12-09T18:49:11.558Z,90114.72
2023-12-09T18:51:56.577Z,90122.81
2023-12-09T18:54:41.477Z,90124.88
2023-12-09T18:57:26.919Z,90143.97
2023-12-09T19:00:11.807Z,90149.56
2023-12-09T19:02:56.638Z,90137.25
2023-12-09T19:05:41.651Z,90151.81
2023-12-09T19:08:27.498Z,90182.91
2023-12-09T19:11:12.550Z,90184.66
2023-12-09T19:13:57.549Z,90190.59
2023-12-09T19:16:42.236Z,90194.72
2023-12-09T19:19:27.921Z,90191.50
2023-12-09T19:22:12.660Z,90193.97
2023-12-09T19:24:57.684Z,90190.22
2023-12-09T19:27:42.722Z,90217.34
2023-12-09T19:30:27.500Z,90179.88
2023-12-09T19:33:12.540Z,90164.38
2023-12-09T19:35:57.665Z,90138.44
2023-12-09T19:38:42.839Z,90113.34
2023-12-09T19:41:27.693Z,90113.09
2023-12-09T19:44:12.595Z,90141.69
2023-12-09T19:46:57.439Z,90128.34
2023-12-09T19:49:42.324Z,90140.91
2023-12-09T19:52:27.642Z,90118.47
2023-12-09T19:55:12.858Z,90140.19
2023-12-09T19:57:57.795Z,90152.91
2023-12-09T20:00:44.798Z,90154.94
2023-12-09T20:03:30.496Z,90164.56
2023-12-09T20:06:15.270Z,90130.03
2023-12-09T20:09:00.363Z,90131.28
2023-12-09T20:11:45.433Z,90154.56
2023-12-09T20:14:30.370Z,90160.34
2023-12-09T20:17:15.371Z,90135.97
2023-12-09T20:20:00.471Z,90124.88
2023-12-09T20:22:45.264Z,90107.13
2023-12-09T20:25:29.867Z,90062.00
2023-12-09T20:28:14.956Z,90066.44
2023-12-09T20:30:59.995Z,90087.38
2023-12-09T20:33:45.069Z,90138.47
2023-12-09T20:36:30.107Z,90157.91
2023-12-09T20:39:15.150Z,90157.91
2023-12-09T20:42:00.261Z,90164.06
2023-12-09T20:44:45.236Z,90132.41
2023-12-09T20:47:30.384Z,90151.81
2023-12-09T20:50:15.429Z,90132.19
2023-12-09T20:53:00.397Z,90156.94
2023-12-09T20:55:46.336Z,90134.88
2023-12-09T20:58:31.380Z,90120.00
2023-12-09T21:01:16.702Z,90104.69
2023-12-09T21:04:01.681Z,90108.72
2023-12-09T21:06:46.824Z,90118.63
2023-12-09T21:09:31.822Z,90116.38
2023-12-09T21:12:16.883Z,90133.13
2023-12-09T21:15:01.803Z,90127.09
2023-12-09T21:17:46.788Z,90091.78
2023-12-09T21:20:31.706Z,90074.03
2023-12-09T21:23:16.698Z,90076.50
2023-12-09T21:26:01.702Z,90068.88
2023-12-09T21:28:46.741Z,90071.28
2023-12-09T21:31:31.716Z,90088.31
2023-12-09T21:34:18.348Z,90109.47
2023-12-09T21:37:03.750Z,90091.53
2023-12-09T21:39:48.399Z,90111.59
2023-12-09T21:42:33.383Z,90091.09
2023-12-09T21:45:18.213Z,90099.25
2023-12-09T21:48:03.306Z,90081.25
2023-12-09T21:50:48.354Z,90066.22
2023-12-09T21:53:33.299Z,90048.66
2023-12-09T21:56:18.556Z,90041.31
2023-12-09T21:59:03.750Z,90081.03
2023-12-09T22:01:51.296Z,90118.28
2023-12-09T22:04:36.556Z,90126.22
2023-12-09T22:07:21.499Z,90127.69
2023-12-09T22:10:06.406Z,90129.47
2023-12-09T22:12:51.468Z,90102.31
2023-12-09T22:15:36.176Z,90115.63
2023-12-09T22:18:21.350Z,90107.72
2023-12-09T22:21:06.105Z,90104.03
2023-12-09T22:23:51.154Z,90106.97
2023-12-09T22:26:35.855Z,90129.91
2023-12-09T22:29:20.799Z,90112.16
2023-12-09T22:32:05.500Z,90124.47
2023-12-09T22:34:50.350Z,90163.97
2023-12-09T22:37:35.147Z,90190.59
2023-12-09T22:40:20.209Z,90168.75
2023-12-09T22:43:05.024Z,90150.78
2023-12-09T22:45:50.220Z,90161.75
2023-12-09T22:48:35.771Z,90146.66
2023-12-09T22:51:20.701Z,90154.06
2023-12-09T22:54:05.672Z,90179.00
2023-12-09T22:56:50.513Z,90198.00
2023-12-09T22:59:35.453Z,90226.75
2023-12-09T23:02:20.173Z,90233.22
2023-12-09T23:05:05.189Z,90229.28
2023-12-09T23:07:50.009Z,90246.34
2023-12-09T23:10:35.023Z,90249.81
2023-12-09T23:13:20.100Z,90255.50
2023-12-09T23:16:04.834Z,90241.16
2023-12-09T23:18:49.990Z,90253.25
2023-12-09T23:21:35.395Z,90263.66
2023-12-09T23:24:20.601Z,90298.78
2023-12-09T23:27:05.788Z,90314.34
2023-12-09T23:29:51.123Z,90322.31
2023-12-09T23:32:36.666Z,90340.84
2023-12-09T23:35:23.361Z,90352.00
2023-12-09T23:38:08.154Z,90373.97
2023-12-09T23:40:52.929Z,90379.97
2023-12-09T23:43:37.928Z,90397.00
2023-12-09T23:46:22.506Z,90395.56
2023-12-09T23:49:07.525Z,90413.44
2023-12-09T23:51:52.688Z,90411.88
2023-12-09T23:54:37.598Z,90416.97
2023-12-09T23:57:22.660Z,90392.84
